East London, South Africa
Current Conditions -  °F | °C
As of 7:00 AM on Saturday 20 Dec 2014 (Local Time) from FAEL Reporting Station
Broken Clouds Broken Clouds  
Wind Chill: 66°   Ceiling: 4000
Heat Index: 66°   Visibility: 6mi
Dew Point: 57°   Wind: 8mph
Humidity: 73%   Direction: 270°W
Pressure: 29.97"   Gusts: NA
Location:  32.97°S, 27.87°E
Report Text: FAEL 200500Z 27007KT 9999 BKN040 19/14 Q1015
Loading
Personal Weather Stations






























Interactive Weather Map New forecast layout! Learn more

10-Day Weather Forecast

Advertisements
Track Severe Weather on mobile